Aviation Digital Data Service (ADDS)

Output produced by TAFs form (2052 UTC 19 April 2014)
found at http://www.aviationweather.gov/adds/tafs/
 
KGFL 191720Z 1918/2018 35010G20KT P6SM SCT050 
     FM192100 35010G20KT P6SM SKC 
     FM200000 VRB03KT P6SM SKC 
     FM201500 VRB03KT P6SM FEW250